Flight Track Log - Related Links

Times and Time Zones

All times are in EDT time to prevent confusion due to time zone crossing. See the N915CD flight status page for this flight to view local times or setup timezone preferences in your user account.


Time Position Orientation Groundspeed Altitude Reporting Facility
EDT Latitude Longitude Course Direction KTS MPH feet Rate Location/Type
Tue 07:01:28 PM 35.4744 -119.2067 285° West 159 183 4,200  Level Oakland Center
Tue 07:02:30 PM 35.4867 -119.2592 286° West 161 185 5,200 1,024 Climbing Oakland Center
Tue 07:03:31 PM 35.5000 -119.3142 287° West 163 188 6,300 1,024 Climbing Oakland Center
Tue 07:04:33 PM 35.5142 -119.3700 287° West 168 193 7,300 1,065 Climbing Los Angeles Center
Tue 07:05:00 PM 35.5335 -119.4339 292° West  Level FlightAware Approximate
Tue 07:05:35 PM 35.5269 -119.4272 285° West 172 198 8,500  Level Los Angeles Center
Tue 07:06:00 PM 35.5502 -119.5008 285° West  Level FlightAware Approximate
Tue 07:06:37 PM 35.5389 -119.4858 284° West 176 203 9,600  Level Los Angeles Center
Tue 07:07:38 PM 35.5519 -119.5456 285° West 179 206 10,400 976 Climbing Los Angeles Center
Tue 07:08:40 PM 35.5694 -119.6183 286° West 184 212 11,600 1,016 Climbing Los Angeles Center
Tue 07:09:42 PM 35.5819 -119.6775 285° West 181 208 12,500 871 Climbing Los Angeles Center
Tue 07:10:44 PM 35.5956 -119.7378 286° West 183 211 13,400 871 Climbing Los Angeles Center
Tue 07:11:46 PM 35.6078 -119.7961 284° West 178 205 14,300 794 Climbing Los Angeles Center
Tue 07:13:00 PM 35.6189 -119.8517 284° West 171 197 15,200 800 Climbing Los Angeles Center
Tue 07:13:46 PM 35.6300 -119.9075 284° West 175 201 15,900 785 Climbing Oakland Center
Tue 07:14:47 PM 35.6425 -119.9672 284° West 180 207 16,600 634 Climbing Oakland Center
Tue 07:15:49 PM 35.6869 -120.0042 326° Northwest 201 231 17,200 585 Climbing Oakland Center
Tue 07:16:50 PM 35.7406 -120.0456 328° Northwest 193 222 17,800 620 Climbing Oakland Center
Tue 07:18:53 PM 35.8361 -120.1117 331° Northwest 197 227 19,100 584 Climbing Oakland Center
Tue 07:19:55 PM 35.8814 -120.1461 328° Northwest 193 222 19,600 439 Climbing Oakland Center
Tue 07:20:56 PM 35.9294 -120.1797 330° Northwest 199 229 20,000 197 Climbing Oakland Center
Tue 07:21:57 PM 35.9808 -120.2175 329° Northwest 215 247 20,000  Level Oakland Center
Tue 07:22:59 PM 36.0361 -120.2578 329° Northwest 229 264 20,000  Level Oakland Center
Tue 07:24:00 PM 36.0997 -120.3114 326° Northwest 232 267 20,000  Level Oakland Center
Tue 07:25:02 PM 36.1528 -120.3506 329° Northwest 228 262 20,000  Level Oakland Center
Tue 07:26:03 PM 36.2061 -120.3897 329° Northwest 226 260 20,000  Level Oakland Center
Tue 07:27:05 PM 36.2597 -120.4328 327° Northwest 230 265 20,000  Level Oakland Center
Tue 07:28:06 PM 36.3153 -120.4792 326° Northwest 242 278 20,000  Level Oakland Center
Tue 07:29:07 PM 36.3728 -120.5175 332° Northwest 238 274 20,000 -49 Level Oakland Center
Tue 07:30:09 PM 36.4297 -120.5594 329° Northwest 240 276 19,900 -49 Descending Oakland Center
Tue 07:31:10 PM 36.4861 -120.6053 327° Northwest 241 277 19,900 49 Level Oakland Center
Tue 07:32:11 PM 36.5333 -120.6544 320° Northwest 226 260 20,000 49 Climbing Oakland Center
Tue 07:33:13 PM 36.5850 -120.7242 313° West 229 264 20,000  Level Oakland Center
Tue 07:34:14 PM 36.6289 -120.7811 314° West 230 265 20,000  Level Oakland Center
Tue 07:35:15 PM 36.6728 -120.8328 317° Northwest 221 254 20,000  Level Oakland Center
Tue 07:36:17 PM 36.7161 -120.8856 316° Northwest 221 254 20,000  Level Oakland Center
Tue 07:37:18 PM 36.7586 -120.9431 313° West 226 260 20,000  Level Oakland Center
Tue 07:38:19 PM 36.8008 -121.0000 313° West 226 260 20,000  Level Oakland Center
Tue 07:39:21 PM 36.8525 -121.0628 316° Northwest 225 259 20,000  Level Oakland Center
Tue 07:40:22 PM 36.8953 -121.1194 313° West 224 258 20,000  Level Oakland Center
Tue 07:41:24 PM 36.9344 -121.1711 313° West 218 251 20,000  Level Oakland Center
Tue 07:42:25 PM 36.9769 -121.2283 313° West 223 257 20,000  Level Oakland Center
Tue 07:43:26 PM 37.0197 -121.2847 314° West 223 257 20,000  Level Oakland Center
Tue 07:44:28 PM 37.0625 -121.3422 313° West 225 259 20,000  Level Oakland Center
Tue 07:45:29 PM 37.1075 -121.4003 314° West 219 252 20,000  Level Oakland Center
Tue 07:46:30 PM 37.1511 -121.4569 314° West 223 257 20,000 -49 Level Oakland Center
Tue 07:47:32 PM 37.1925 -121.5158 311° West 223 257 19,900 -49 Descending Oakland Center
Tue 07:48:33 PM 37.2439 -121.5814 315° West 219 252 19,900 -443 Level Oakland Center
Tue 07:49:34 PM 37.2900 -121.6417 314° West 235 270 19,000 -927 Descending Oakland Center
Tue 07:50:36 PM 37.3397 -121.7064 314° West 253 291 18,000 -927 Descending Oakland Center
Tue 07:51:37 PM 37.3864 -121.7644 315° West 257 296 17,100 -934 Descending Oakland Center
Tue 07:52:38 PM 37.4375 -121.8308 314° West 262 302 16,100 -976 Descending Oakland Center
Tue 07:53:40 PM 37.4972 -121.8811 326° Northwest 259 298 15,100 -1,220 Descending Oakland Center
Tue 07:54:41 PM 37.5786 -121.9219 338° Northwest 261 300 13,600 -1,328 Descending Oakland Center
Tue 07:55:42 PM 37.6436 -121.9531 339° North 253 291 12,400 -732 Descending Oakland Center
Tue 07:56:44 PM 37.7044 -121.9872 336° Northwest 245 282 12,100 -634 Descending Oakland Center
Tue 07:57:45 PM 37.7642 -122.0206 336° Northwest 237 273 11,100 -1,131 Descending Oakland Center
Tue 07:58:46 PM 37.8261 -122.0550 336° Northwest 242 278 9,800 -1,220 Descending Oakland Center
Tue 07:59:48 PM 37.8861 -122.0928 334° Northwest 241 277 8,600 -1,220 Descending Oakland Center
Tue 08:00:49 PM 37.9458 -122.1261 336° Northwest 238 274 7,300 -1,328 Descending Oakland Center
Tue 08:01:50 PM 38.0042 -122.1625 334° Northwest 236 272 5,900 -1,463 Descending Oakland Center
Tue 08:02:52 PM 38.0747 -122.2022 336° Northwest 234 269 4,300 -1,366 Descending Oakland Center
Tue 08:03:53 PM 38.1300 -122.2153 349° North 213 245 3,100 -1,131 Descending Oakland Center
Tue 08:04:54 PM 38.1731 -122.2219 353° North 171 197 2,000 -1,073 Descending Oakland Center
Tue 08:05:56 PM 38.2097 -122.2300 350° North 146 168 900 -927 Descending Oakland Center
Tue 08:06:57 PM 38.2139 -122.2639 279° West 118 136 100 -787 Descending Oakland Center

Login

Don't have an account? Register now (free) for customized features, flight alerts, and more!